Huvudsida
METAR-TAF:

METAR-TAF

Flygplatser :

Guilin, Kina

Guilin Liangjiang International Airport

latitud: 25-20N, longitud: 110-18E, höjd: 166 m

Aktuellt väderrapport

Denna rapport gjordes för 1 timme och 16 minuter sedan, klockan 14:00 UTC
Vind 2 kt varierande vindriktning
Temperatur 14°C
Fuktighet 77%
Tryck 1019 hPa
Sikt: 3500 m
Brutna moln på en höjd av 6000 ft
fuktdis

METAR: ZGKL 181400Z VRB01MPS 3500 BR BKN060 14/10 Q1019 NOSIG

Tid: 23:16 (15:16 UTC)

Väderprognos

Denna rapport gjordes för 6 timmar och 13 minuter sedan, klockan 09:03 UTC
Prognos gäller från 18 kl. 12 UTC till 19 kl. 12 UTC
Vind 6 kt från nordost
Sikt: 2500 m
Få moln på en höjd av 3000 ft
Brutna moln på en höjd av 5000 ft
fuktdis
Blir
från 19 kl. 01 UTC till 19 kl. 02 UTC
Sikt: 4000 m

TAF: ZGKL 180903Z 1812/1912 05003MPS 2500 BR FEW030 BKN050 TX16/1907Z TN11/1822Z BECMG 1901/1902 4000

Aktuella väderrapporter och prognoser från 4000 flygplatser (METAR- och TAF-rapporter).

De tillgängliga stationerna syns som gula och röda prickar på kartan.

För musen över prickarna för att se namnen på stationerna.

Klicka sedan för att få väderrapporter och prognoser.

För att ändra kartan: Klicka på de gröna knapparna med ett svart kors på för att zooma in; den gröna knappen med ett streck på för att zooma ut; eller på de gröna pilarna för angränsande kartor.


METAR-TAF: